Time;durP1;ratioP1;P1;durP2;ratioP2;P2;SDS_P1;SDS_P2;PMS_P1;PMS_P2;Temp;Humidity;BMP_temperature;BMP_pressure;BME280_temperature;BME280_humidity;BME280_pressure;Samples;Min_cycle;Max_cycle;Signal;HPM_P1;HPM_P2
2023/04/16 00:00:50;;;;;;;8.98;4.45;;;8.60;99.90;;;;;;4969681;28;20176;-44
2023/04/16 00:03:16;;;;;;;13.98;5.30;;;;;;;;;;4969613;28;20173;-44
2023/04/16 00:05:42;;;;;;;11.18;4.90;;;8.80;99.90;;;;;;4969640;28;20209;-45
2023/04/16 00:08:07;;;;;;;9.73;4.72;;;8.50;99.90;;;;;;4969347;28;20173;-48
2023/04/16 00:10:36;;;;;;;9.48;4.60;;;8.60;99.90;;;;;;4969594;28;20213;-47
2023/04/16 00:13:01;;;;;;;9.98;4.82;;;8.60;99.90;;;;;;4969350;28;20197;-46
2023/04/16 00:15:27;;;;;;;13.82;4.78;;;8.70;99.90;;;;;;4969839;28;20200;-44
2023/04/16 00:17:52;;;;;;;9.38;4.43;;;8.60;99.90;;;;;;4969820;28;20216;-45
2023/04/16 00:20:19;;;;;;;14.35;5.28;;;8.60;99.90;;;;;;4969462;28;20188;-45
2023/04/16 00:22:45;;;;;;;11.48;5.57;;;;;;;;;;4969661;28;20181;-45
2023/04/16 00:25:10;;;;;;;16.25;5.57;;;8.70;99.90;;;;;;4969370;28;20301;-46
2023/04/16 00:27:36;;;;;;;9.93;5.35;;;8.60;99.90;;;;;;4969478;28;20170;-45
2023/04/16 00:30:02;;;;;;;10.95;5.10;;;8.60;99.90;;;;;;4988390;28;20263;-44
2023/04/16 00:32:28;;;;;;;11.30;6.32;;;;;;;;;;4988704;28;20169;-44
2023/04/16 00:34:54;;;;;;;12.75;6.13;;;;;;;;;;4989110;28;20252;-45
2023/04/16 00:37:19;;;;;;;14.13;5.80;;;8.60;99.90;;;;;;4988729;28;20164;-45
2023/04/16 00:39:45;;;;;;;10.23;5.18;;;8.70;99.90;;;;;;4989453;28;20546;-45
2023/04/16 00:42:10;;;;;;;10.60;5.32;;;8.70;99.90;;;;;;4992043;28;20172;-45
2023/04/16 00:44:36;;;;;;;13.35;5.95;;;;;;;;;;4991985;28;20200;-45
2023/04/16 00:47:03;;;;;;;10.50;6.20;;;;;;;;;;4992082;28;20212;-45
2023/04/16 00:49:29;;;;;;;12.15;5.57;;;8.70;99.90;;;;;;4992402;28;20223;-45
2023/04/16 00:51:55;;;;;;;11.90;6.45;;;8.60;99.90;;;;;;4992542;28;20181;-47
2023/04/16 00:54:21;;;;;;;11.80;5.30;;;8.60;99.90;;;;;;4991895;28;20168;-47
2023/04/16 00:56:47;;;;;;;14.07;6.78;;;8.70;99.90;;;;;;4991912;28;20257;-45
2023/04/16 00:59:13;;;;;;;9.90;6.15;;;;;;;;;;4978437;28;20646;-46
2023/04/16 01:01:38;;;;;;;15.82;7.15;;;8.80;99.90;;;;;;4972416;28;20192;-45
2023/04/16 01:04:05;;;;;;;14.18;5.93;;;8.70;99.90;;;;;;4972302;28;20189;-44
2023/04/16 01:06:31;;;;;;;11.07;6.03;;;8.70;99.90;;;;;;4972269;28;20198;-45
2023/04/16 01:08:57;;;;;;;15.00;5.50;;;;;;;;;;4972700;28;20225;-45
2023/04/16 01:11:23;;;;;;;10.98;5.65;;;8.60;99.90;;;;;;4972700;28;20177;-45
2023/04/16 01:13:49;;;;;;;18.17;7.40;;;8.60;99.90;;;;;;4972104;28;20176;-44
2023/04/16 01:16:14;;;;;;;17.33;6.03;;;8.50;99.90;;;;;;4972475;28;20178;-44
2023/04/16 01:18:41;;;;;;;18.60;6.88;;;8.80;99.90;;;;;;4972380;28;20291;-45
2023/04/16 01:21:06;;;;;;;15.13;6.05;;;8.60;99.90;;;;;;4972012;28;20253;-45
2023/04/16 01:23:32;;;;;;;11.65;6.40;;;8.60;99.90;;;;;;4972116;28;20633;-45
2023/04/16 01:25:58;;;;;;;11.07;5.68;;;8.60;99.90;;;;;;4972236;28;20213;-44
2023/04/16 01:28:24;;;;;;;13.10;6.90;;;;;;;;;;4971291;28;20184;-44
2023/04/16 01:30:50;;;;;;;13.35;6.53;;;8.40;99.90;;;;;;4972320;28;20169;-44
2023/04/16 01:33:16;;;;;;;12.50;6.00;;;8.60;99.90;;;;;;4972470;28;20235;-44
2023/04/16 01:35:43;;;;;;;12.32;6.75;;;;;;;;;;4971971;28;20173;-44
2023/04/16 01:38:09;;;;;;;15.50;5.97;;;8.50;99.90;;;;;;4972108;28;20326;-44
2023/04/16 01:40:36;;;;;;;16.63;7.63;;;8.60;99.90;;;;;;4973179;28;20181;-44
2023/04/16 01:43:02;;;;;;;12.02;6.32;;;8.50;99.90;;;;;;4971867;28;20191;-44
2023/04/16 01:45:28;;;;;;;8.68;6.20;;;;;;;;;;4971701;28;20732;-44
2023/04/16 01:47:53;;;;;;;13.48;6.75;;;8.50;99.90;;;;;;4972115;28;20256;-44
2023/04/16 01:50:20;;;;;;;12.27;6.85;;;8.70;99.90;;;;;;4971670;28;20253;-45
2023/04/16 01:52:45;;;;;;;15.38;6.72;;;8.60;99.90;;;;;;4971010;28;20162;-45
2023/04/16 01:55:12;;;;;;;11.63;6.22;;;8.60;99.90;;;;;;4971809;28;20184;-44
2023/04/16 01:57:37;;;;;;;16.10;6.43;;;;;;;;;;4973763;28;20294;-45
2023/04/16 02:00:04;;;;;;;16.70;7.10;;;8.60;99.90;;;;;;4990708;28;20657;-44
2023/04/16 02:02:29;;;;;;;13.02;6.38;;;8.60;99.90;;;;;;4990955;28;20644;-44
2023/04/16 02:04:56;;;;;;;11.38;6.80;;;8.60;99.90;;;;;;4991177;28;20200;-45
2023/04/16 02:07:22;;;;;;;12.73;6.53;;;8.50;99.90;;;;;;4990756;28;20252;-44
2023/04/16 02:09:49;;;;;;;12.65;6.47;;;8.60;99.90;;;;;;4990728;28;20707;-44
2023/04/16 02:12:15;;;;;;;9.57;5.88;;;;;;;;;;4990847;28;20177;-44
2023/04/16 02:14:41;;;;;;;13.23;6.90;;;8.60;99.90;;;;;;4990808;28;20161;-45
2023/04/16 02:17:07;;;;;;;16.20;6.75;;;8.60;99.90;;;;;;4990578;28;20632;-44
2023/04/16 02:19:32;;;;;;;10.98;5.85;;;8.60;99.90;;;;;;4990549;28;20173;-44
2023/04/16 02:22:00;;;;;;;12.15;7.15;;;8.60;99.90;;;;;;4990566;28;20169;-44
2023/04/16 02:24:26;;;;;;;12.05;6.55;;;8.60;99.90;;;;;;4991170;28;20169;-44
2023/04/16 02:26:52;;;;;;;13.15;6.43;;;;;;;;;;4990562;28;20260;-44
2023/04/16 02:29:18;;;;;;;14.38;7.47;;;;;;;;;;4974682;28;20173;-44
2023/04/16 02:31:45;;;;;;;13.63;7.85;;;8.50;99.90;;;;;;4971325;28;20217;-44
2023/04/16 02:34:11;;;;;;;13.18;8.70;;;8.60;99.90;;;;;;4971246;28;20173;-44
2023/04/16 02:36:36;;;;;;;12.98;7.00;;;;;;;;;;4971003;28;20669;-44
2023/04/16 02:39:02;;;;;;;14.02;7.93;;;8.60;99.90;;;;;;4970937;28;20174;-44
2023/04/16 02:41:28;;;;;;;10.95;7.00;;;8.60;99.90;;;;;;4970993;28;20222;-45
2023/04/16 02:43:53;;;;;;;16.48;7.82;;;8.60;99.90;;;;;;4971175;28;20169;-44
2023/04/16 02:46:19;;;;;;;16.35;9.10;;;8.50;99.90;;;;;;4970788;28;20217;-44
2023/04/16 02:48:44;;;;;;;15.25;7.47;;;8.60;99.90;;;;;;4970817;28;20215;-45
2023/04/16 02:51:10;;;;;;;16.10;9.00;;;;;;;;;;4970560;28;20253;-44
2023/04/16 02:53:36;;;;;;;20.80;9.75;;;;;;;;;;4970713;28;20218;-44
2023/04/16 02:56:02;;;;;;;16.08;8.80;;;8.50;99.90;;;;;;4970713;28;20181;-44
2023/04/16 02:58:27;;;;;;;18.20;10.18;;;8.60;99.90;;;;;;4978874;28;20175;-44
2023/04/16 03:00:53;;;;;;;21.17;9.45;;;8.60;99.90;;;;;;4990349;28;20176;-44
2023/04/16 03:03:20;;;;;;;17.23;9.77;;;8.50;99.90;;;;;;4988795;28;20558;-44
2023/04/16 03:05:46;;;;;;;21.55;9.32;;;;;;;;;;4989768;28;20310;-44
2023/04/16 03:08:11;;;;;;;17.98;10.00;;;8.60;99.90;;;;;;4989847;28;20220;-44
2023/04/16 03:10:37;;;;;;;19.52;9.85;;;8.50;99.90;;;;;;4989927;28;20197;-44
2023/04/16 03:13:03;;;;;;;12.98;8.10;;;8.60;99.90;;;;;;4989792;28;20536;-44
2023/04/16 03:15:29;;;;;;;20.20;9.70;;;;;;;;;;4989896;28;20180;-44
2023/04/16 03:17:55;;;;;;;17.50;9.25;;;8.60;99.90;;;;;;4990188;28;20523;-44
2023/04/16 03:20:21;;;;;;;21.38;10.35;;;8.60;99.90;;;;;;4989752;28;20255;-44
2023/04/16 03:22:46;;;;;;;20.10;10.35;;;8.40;99.90;;;;;;4989747;28;20183;-44
2023/04/16 03:25:12;;;;;;;18.70;10.35;;;8.60;99.90;;;;;;4989593;28;20204;-44
2023/04/16 03:27:41;;;;;;;20.95;11.85;;;8.50;99.90;;;;;;4983755;28;20206;-44
2023/04/16 03:30:09;;;;;;;19.05;8.93;;;8.50;99.90;;;;;;4970159;28;20169;-44
2023/04/16 03:32:35;;;;;;;20.45;10.10;;;8.40;99.90;;;;;;4970293;28;20223;-44
2023/04/16 03:35:00;;;;;;;19.42;10.50;;;8.50;99.90;;;;;;4970066;28;20173;-44
2023/04/16 03:37:26;;;;;;;21.42;10.75;;;;;;;;;;4970706;28;20259;-44
2023/04/16 03:39:52;;;;;;;19.50;9.88;;;8.50;99.90;;;;;;4970474;28;20173;-44
2023/04/16 03:42:17;;;;;;;22.52;11.70;;;8.50;99.90;;;;;;4970011;28;20179;-44
2023/04/16 03:44:43;;;;;;;24.77;13.68;;;8.50;99.90;;;;;;4969965;28;20204;-44
2023/04/16 03:47:08;;;;;;;22.27;12.75;;;8.60;99.90;;;;;;4969581;28;20533;-44
2023/04/16 03:49:34;;;;;;;24.90;12.32;;;8.60;99.90;;;;;;4969951;28;20168;-44
2023/04/16 03:51:59;;;;;;;28.75;11.98;;;8.50;99.90;;;;;;4970068;28;20636;-44
2023/04/16 03:54:25;;;;;;;24.33;11.30;;;8.50;99.90;;;;;;4970273;28;20607;-44
2023/04/16 03:56:51;;;;;;;22.52;10.98;;;8.40;99.90;;;;;;4969993;28;20177;-44
2023/04/16 03:59:17;;;;;;;22.83;12.30;;;8.30;99.90;;;;;;4986934;28;20245;-44
2023/04/16 04:01:42;;;;;;;24.27;11.60;;;8.50;99.90;;;;;;4988901;28;20263;-44
2023/04/16 04:04:08;;;;;;;23.85;11.57;;;8.40;99.90;;;;;;4989114;28;20259;-44
2023/04/16 04:06:34;;;;;;;21.02;10.98;;;8.50;99.90;;;;;;4989004;28;20236;-44
2023/04/16 04:09:00;;;;;;;26.90;11.45;;;8.50;99.90;;;;;;4988789;28;20741;-44
2023/04/16 04:11:25;;;;;;;27.83;13.43;;;8.50;99.90;;;;;;4989329;28;20168;-44
2023/04/16 04:13:51;;;;;;;37.63;14.02;;;8.60;99.90;;;;;;4988931;28;20168;-44
2023/04/16 04:16:17;;;;;;;28.15;14.32;;;;;;;;;;4988662;28;20196;-44
2023/04/16 04:18:42;;;;;;;25.15;11.98;;;8.60;99.90;;;;;;4989002;28;20192;-44
2023/04/16 04:21:08;;;;;;;22.17;13.10;;;8.70;99.90;;;;;;4989075;28;20172;-44
2023/04/16 04:23:34;;;;;;;27.15;14.07;;;8.50;99.90;;;;;;4989147;28;20180;-44
2023/04/16 04:26:02;;;;;;;26.17;13.88;;;8.50;99.90;;;;;;4988873;28;20209;-44
2023/04/16 04:28:29;;;;;;;21.35;12.43;;;8.50;99.90;;;;;;4975860;28;20173;-44
2023/04/16 04:30:55;;;;;;;25.02;13.23;;;;;;;;;;4969717;28;20665;-44
2023/04/16 04:33:20;;;;;;;26.25;12.45;;;8.60;99.90;;;;;;4969409;28;20187;-45
2023/04/16 04:35:46;;;;;;;29.60;14.27;;;8.50;99.90;;;;;;4969258;28;20169;-44
2023/04/16 04:38:11;;;;;;;26.10;14.77;;;8.40;99.90;;;;;;4969478;28;20190;-45
2023/04/16 04:40:37;;;;;;;29.48;14.35;;;8.70;99.90;;;;;;4969312;28;20178;-44
2023/04/16 04:43:03;;;;;;;22.27;13.52;;;8.50;99.90;;;;;;4969315;28;20610;-44
2023/04/16 04:45:29;;;;;;;26.35;13.63;;;8.50;99.90;;;;;;4969138;28;20212;-44
2023/04/16 04:47:54;;;;;;;31.17;14.63;;;8.50;99.90;;;;;;4969647;28;20173;-44
2023/04/16 04:50:21;;;;;;;27.60;13.25;;;8.50;99.90;;;;;;4969411;28;20323;-44
2023/04/16 04:52:47;;;;;;;29.50;14.75;;;;;;;;;;4969447;28;20170;-44
2023/04/16 04:55:14;;;;;;;26.83;14.88;;;8.60;99.90;;;;;;4969077;28;20621;-44
2023/04/16 04:57:40;;;;;;;28.27;15.32;;;8.70;99.90;;;;;;4968492;28;20231;-44
2023/04/16 05:00:06;;;;;;;25.73;13.32;;;8.60;99.90;;;;;;4968715;28;20173;-44
2023/04/16 05:02:32;;;;;;;26.48;14.27;;;8.60;99.90;;;;;;4969088;28;20231;-44
2023/04/16 05:04:58;;;;;;;16.45;10.75;;;8.50;99.90;;;;;;4968848;28;20205;-45
2023/04/16 05:07:23;;;;;;;28.50;14.80;;;8.50;99.90;;;;;;4969321;28;20173;-44
2023/04/16 05:09:49;;;;;;;26.52;12.60;;;8.60;99.90;;;;;;4968894;28;20593;-44
2023/04/16 05:12:15;;;;;;;25.15;14.68;;;8.60;99.90;;;;;;4969251;28;20250;-44
2023/04/16 05:14:41;;;;;;;25.20;13.45;;;8.60;99.90;;;;;;4968941;28;20168;-44
2023/04/16 05:17:06;;;;;;;26.25;15.43;;;8.60;99.90;;;;;;4968978;28;20613;-44
2023/04/16 05:19:32;;;;;;;26.17;14.07;;;8.60;99.90;;;;;;4968847;28;20192;-44
2023/04/16 05:21:58;;;;;;;29.48;16.08;;;;;;;;;;4968811;28;20193;-44
2023/04/16 05:24:24;;;;;;;26.70;16.45;;;8.60;99.90;;;;;;4969197;28;20166;-45
2023/04/16 05:26:50;;;;;;;32.65;15.02;;;8.60;99.90;;;;;;4975961;28;20185;-45
2023/04/16 05:29:15;;;;;;;28.98;15.30;;;8.70;99.90;;;;;;4991514;28;20279;-44
2023/04/16 05:31:41;;;;;;;24.10;13.70;;;8.70;99.90;;;;;;4991439;28;20176;-44
2023/04/16 05:34:07;;;;;;;26.60;13.93;;;;;;;;;;4991139;28;20201;-44
2023/04/16 05:36:32;;;;;;;25.55;12.32;;;8.70;99.90;;;;;;4991323;28;20169;-44
2023/04/16 05:38:58;;;;;;;24.52;14.00;;;;;;;;;;4991512;28;20225;-45
2023/04/16 05:41:24;;;;;;;30.15;14.05;;;8.60;99.90;;;;;;4991648;28;20655;-45
2023/04/16 05:43:49;;;;;;;25.58;14.25;;;8.70;99.90;;;;;;4989243;28;20677;-46
2023/04/16 05:46:15;;;;;;;24.30;13.20;;;;;;;;;;4978574;28;20617;-45
2023/04/16 05:48:41;;;;;;;21.27;12.85;;;8.70;99.90;;;;;;4991128;28;20527;-45
2023/04/16 05:51:07;;;;;;;27.75;11.90;;;;;;;;;;4991515;28;20591;-45
2023/04/16 05:53:32;;;;;;;28.30;15.07;;;8.70;99.90;;;;;;4951818;28;20555;-45
2023/04/16 05:55:58;;;;;;;23.00;13.05;;;8.80;99.90;;;;;;4952081;28;20201;-45
2023/04/16 05:58:23;;;;;;;27.10;15.00;;;8.80;99.90;;;;;;4952689;28;20185;-46
2023/04/16 06:00:50;;;;;;;22.00;14.05;;;8.80;99.90;;;;;;4952083;28;20178;-44
2023/04/16 06:03:15;;;;;;;29.80;14.32;;;8.80;99.90;;;;;;4979799;28;20178;-44
2023/04/16 06:05:41;;;;;;;22.58;14.38;;;;;;;;;;4971329;28;20209;-45
2023/04/16 06:08:07;;;;;;;25.88;13.90;;;8.80;99.90;;;;;;4971323;28;20177;-43
2023/04/16 06:10:33;;;;;;;22.45;13.88;;;;;;;;;;4979971;28;20184;-45
2023/04/16 06:12:58;;;;;;;23.70;13.45;;;8.90;99.90;;;;;;4990747;28;20165;-43
2023/04/16 06:15:24;;;;;;;26.75;14.93;;;;;;;;;;4991029;28;20182;-44
2023/04/16 06:17:50;;;;;;;28.70;14.35;;;8.90;99.90;;;;;;4990593;28;20172;-44
2023/04/16 06:20:15;;;;;;;30.48;14.88;;;8.90;99.90;;;;;;4990734;28;20226;-44
2023/04/16 06:22:41;;;;;;;24.85;14.27;;;9.00;99.90;;;;;;4973477;28;20288;-45
2023/04/16 06:25:07;;;;;;;21.23;13.68;;;8.90;99.90;;;;;;4971090;28;20220;-45
2023/04/16 06:27:33;;;;;;;25.38;15.20;;;8.90;99.90;;;;;;4986149;28;20183;-45
2023/04/16 06:29:59;;;;;;;24.52;14.85;;;;;;;;;;4990430;28;20252;-45
2023/04/16 06:32:24;;;;;;;30.58;16.58;;;8.90;99.90;;;;;;4990636;28;20257;-44
2023/04/16 06:34:50;;;;;;;25.08;13.95;;;9.00;99.90;;;;;;4990524;28;20254;-44
2023/04/16 06:37:15;;;;;;;16.15;10.45;;;8.90;99.90;;;;;;4990193;28;20644;-44
2023/04/16 06:39:41;;;;;;;30.35;15.30;;;8.90;99.90;;;;;;4990523;28;20173;-44
2023/04/16 06:42:07;;;;;;;23.83;13.35;;;8.80;99.90;;;;;;4977174;28;20181;-44
2023/04/16 06:44:32;;;;;;;30.38;13.77;;;9.00;99.90;;;;;;4986268;28;20182;-44
2023/04/16 06:46:58;;;;;;;24.58;14.15;;;;;;;;;;4971705;28;20185;-43
2023/04/16 06:49:24;;;;;;;29.33;14.43;;;8.90;99.90;;;;;;4976780;28;20230;-43
2023/04/16 06:51:49;;;;;;;20.33;11.43;;;8.90;99.90;;;;;;4971646;28;20268;-45
2023/04/16 06:54:15;;;;;;;19.75;11.95;;;8.90;99.90;;;;;;4971374;28;20178;-43
2023/04/16 06:56:41;;;;;;;30.15;14.57;;;8.80;99.90;;;;;;4971442;28;20219;-43
2023/04/16 06:59:06;;;;;;;24.63;13.10;;;8.90;99.90;;;;;;4971324;28;20626;-45
2023/04/16 07:01:32;;;;;;;24.25;13.63;;;;;;;;;;4979701;28;20637;-46
2023/04/16 07:03:58;;;;;;;25.88;15.25;;;9.00;99.90;;;;;;4976055;28;20191;-44
2023/04/16 07:06:24;;;;;;;25.08;12.20;;;8.90;99.90;;;;;;4990834;28;20676;-45
2023/04/16 07:08:49;;;;;;;21.65;12.30;;;9.00;99.90;;;;;;4980664;28;20297;-46
2023/04/16 07:11:15;;;;;;;21.70;12.35;;;8.90;99.90;;;;;;4971022;28;20186;-46
2023/04/16 07:13:40;;;;;;;22.92;13.38;;;9.00;99.90;;;;;;4971233;28;20166;-45
2023/04/16 07:16:06;;;;;;;24.50;13.38;;;8.90;99.90;;;;;;4970901;28;20671;-44
2023/04/16 07:18:32;;;;;;;23.98;12.68;;;8.80;99.90;;;;;;4970575;28;20170;-45
2023/04/16 07:20:57;;;;;;;20.27;11.05;;;9.00;99.90;;;;;;4974508;28;20177;-45
2023/04/16 07:23:23;;;;;;;20.52;10.85;;;9.00;99.90;;;;;;4970052;28;20193;-45
2023/04/16 07:25:49;;;;;;;19.58;10.30;;;;;;;;;;4970799;28;20216;-44
2023/04/16 07:28:16;;;;;;;17.65;9.85;;;9.10;99.90;;;;;;4970989;28;20252;-45
2023/04/16 07:30:42;;;;;;;18.02;9.80;;;8.90;99.90;;;;;;4970561;28;20196;-48
2023/04/16 07:33:08;;;;;;;18.65;11.30;;;9.10;99.90;;;;;;4970664;28;20170;-45
2023/04/16 07:35:33;;;;;;;18.63;10.13;;;9.10;99.90;;;;;;4970269;28;20646;-45
2023/04/16 07:37:59;;;;;;;18.27;10.07;;;9.20;99.90;;;;;;4969463;28;20256;-45
2023/04/16 07:40:25;;;;;;;16.73;10.30;;;9.10;99.90;;;;;;4971175;28;20574;-45
2023/04/16 07:42:51;;;;;;;17.48;10.43;;;9.20;99.90;;;;;;4986126;28;20252;-44
2023/04/16 07:45:17;;;;;;;15.88;9.70;;;9.20;99.90;;;;;;4989203;28;20287;-44
2023/04/16 07:47:44;;;;;;;18.00;10.30;;;9.20;99.90;;;;;;4982941;28;20688;-44
2023/04/16 07:50:10;;;;;;;19.52;10.13;;;9.20;99.90;;;;;;4969611;28;20695;-45
2023/04/16 07:52:40;;;;;;;20.33;10.68;;;;;;;;;;4970334;28;20544;-46
2023/04/16 07:55:06;;;;;;;17.50;10.07;;;9.20;99.90;;;;;;4969385;28;20648;-44
2023/04/16 07:57:32;;;;;;;22.23;11.45;;;9.20;99.90;;;;;;4968849;28;20180;-44
2023/04/16 07:59:58;;;;;;;23.05;13.15;;;9.10;99.90;;;;;;4968852;28;20165;-42
2023/04/16 08:02:23;;;;;;;22.92;11.40;;;9.10;99.90;;;;;;4970375;28;20185;-42
2023/04/16 08:04:49;;;;;;;23.00;12.57;;;9.30;99.90;;;;;;4969863;28;20200;-42
2023/04/16 08:07:15;;;;;;;24.55;12.95;;;;;;;;;;4970233;28;20178;-42
2023/04/16 08:09:49;;;;;;;25.70;14.65;;;9.20;99.90;;;;;;4970073;28;20217;-43
2023/04/16 08:12:18;;;;;;;22.70;13.48;;;9.50;99.90;;;;;;4968965;28;20257;-43
2023/04/16 08:14:44;;;;;;;28.85;14.23;;;9.50;99.90;;;;;;4969787;28;20181;-42
2023/04/16 08:17:13;;;;;;;31.10;14.75;;;9.50;99.90;;;;;;4969484;28;20173;-42
2023/04/16 08:19:39;;;;;;;32.40;15.98;;;9.70;99.90;;;;;;4969779;28;20181;-42
2023/04/16 08:22:05;;;;;;;31.00;17.25;;;9.50;99.90;;;;;;4969450;28;20173;-42
2023/04/16 08:24:31;;;;;;;31.00;17.83;;;9.40;99.90;;;;;;4969388;28;20166;-42
2023/04/16 08:26:56;;;;;;;27.02;15.85;;;9.60;99.90;;;;;;4969484;28;20264;-42
2023/04/16 08:29:25;;;;;;;32.05;19.08;;;;;;;;;;4969880;28;20185;-43
2023/04/16 08:31:52;;;;;;;35.72;20.20;;;9.80;99.90;;;;;;4969800;28;20165;-42
2023/04/16 08:34:19;;;;;;;31.63;17.92;;;9.90;99.90;;;;;;4969401;28;20162;-43
2023/04/16 08:36:45;;;;;;;31.60;19.08;;;;;;;;;;4969603;28;20256;-44
2023/04/16 08:39:11;;;;;;;33.35;19.40;;;;;;;;;;4968856;28;20174;-42
2023/04/16 08:41:41;;;;;;;34.40;17.67;;;9.90;99.90;;;;;;4977101;28;20184;-42
2023/04/16 08:44:10;;;;;;;34.67;19.23;;;10.10;99.90;;;;;;4987292;28;20165;-45
2023/04/16 08:46:36;;;;;;;35.90;18.40;;;10.10;99.90;;;;;;4984632;28;20197;-42
2023/04/16 08:49:05;;;;;;;32.00;18.20;;;10.30;99.90;;;;;;4968753;28;20180;-42
2023/04/16 08:51:34;;;;;;;29.73;17.42;;;10.30;99.90;;;;;;4968940;28;20174;-43
2023/04/16 08:54:03;;;;;;;35.10;18.67;;;10.50;99.90;;;;;;4969171;28;20593;-44
2023/04/16 08:56:34;;;;;;;25.50;15.48;;;10.60;99.90;;;;;;4969405;28;20177;-42
2023/04/16 08:59:04;;;;;;;26.42;16.23;;;;;;;;;;4968871;28;20181;-41
2023/04/16 09:01:33;;;;;;;30.05;17.08;;;10.60;99.90;;;;;;4968315;28;20220;-43
2023/04/16 09:04:00;;;;;;;25.92;16.38;;;10.60;99.90;;;;;;4971919;28;20204;-46
2023/04/16 09:06:27;;;;;;;28.13;15.60;;;;;;;;;;5073079;28;20637;-43
2023/04/16 09:08:53;;;;;;;27.98;17.15;;;10.60;99.90;;;;;;5072975;28;20236;-43
2023/04/16 09:11:20;;;;;;;31.42;16.67;;;10.80;99.90;;;;;;5045684;28;20177;-43
2023/04/16 09:13:46;;;;;;;27.80;16.95;;;10.70;99.90;;;;;;4989611;28;20260;-43
2023/04/16 09:16:13;;;;;;;27.65;15.25;;;10.50;99.90;;;;;;4989823;28;20223;-43
2023/04/16 09:18:39;;;;;;;22.25;14.82;;;;;;;;;;4990142;28;20173;-44
2023/04/16 09:21:06;;;;;;;33.15;17.52;;;10.60;99.90;;;;;;4990048;28;20219;-44
2023/04/16 09:23:32;;;;;;;25.88;17.67;;;10.70;99.90;;;;;;4989793;28;20693;-43
2023/04/16 09:25:59;;;;;;;34.85;17.55;;;10.80;99.90;;;;;;4989694;28;20220;-46
2023/04/16 09:28:45;;;;;;;31.05;18.67;;;10.70;99.90;;;;;;4990195;28;20165;-46
2023/04/16 09:31:16;;;;;;;28.00;18.85;;;10.90;99.90;;;;;;4989827;28;20636;-44
2023/04/16 09:33:42;;;;;;;30.10;18.63;;;11.00;99.90;;;;;;4989716;28;20537;-44
2023/04/16 09:36:09;;;;;;;32.08;21.27;;;;;;;;;;4988597;28;20215;-43
2023/04/16 09:38:48;;;;;;;29.65;18.23;;;11.50;99.90;;;;;;4990131;28;20551;-44
2023/04/16 09:41:15;;;;;;;28.92;18.60;;;11.50;99.90;;;;;;4984589;28;20177;-45
2023/04/16 09:43:48;;;;;;;32.25;19.38;;;11.60;99.90;;;;;;4970294;28;20169;-44
2023/04/16 09:46:13;;;;;;;34.55;18.30;;;11.60;99.90;;;;;;4970095;28;20205;-43
2023/04/16 09:48:39;;;;;;;30.73;17.00;;;11.60;99.90;;;;;;4970160;28;20528;-43
2023/04/16 09:51:06;;;;;;;27.35;16.42;;;11.60;99.90;;;;;;4970334;28;20176;-43
2023/04/16 09:53:32;;;;;;;30.90;18.80;;;11.70;99.90;;;;;;4970445;28;20169;-44
2023/04/16 09:55:59;;;;;;;31.73;22.05;;;11.90;99.90;;;;;;4969981;28;20845;-44
2023/04/16 09:58:25;;;;;;;33.65;21.75;;;;;;;;;;4970591;28;20208;-43
2023/04/16 10:01:05;;;;;;;27.00;18.52;;;12.10;99.90;;;;;;4968840;28;20642;-44
2023/04/16 10:03:32;;;;;;;32.75;19.73;;;12.50;99.90;;;;;;5007277;28;20170;-43
2023/04/16 10:06:16;;;;;;;28.40;19.00;;;12.70;99.90;;;;;;5070479;28;20265;-44
2023/04/16 10:08:50;;;;;;;28.63;18.27;;;12.70;99.90;;;;;;5071675;28;20248;-44
2023/04/16 10:11:17;;;;;;;26.20;17.45;;;13.00;99.90;;;;;;5038193;28;20172;-44
2023/04/16 10:13:43;;;;;;;24.42;18.60;;;;;;;;;;4973768;28;20195;-46
2023/04/16 10:16:09;;;;;;;27.58;19.70;;;;;;;;;;4969924;28;20178;-46
2023/04/16 10:18:41;;;;;;;22.85;15.23;;;12.70;99.90;;;;;;4969868;28;20541;-46
2023/04/16 10:21:10;;;;;;;29.60;19.00;;;;;;;;;;4969690;28;20166;-47
2023/04/16 10:23:38;;;;;;;26.17;16.92;;;12.40;99.90;;;;;;4969466;28;20212;-47
2023/04/16 10:26:05;;;;;;;28.60;18.15;;;12.40;99.90;;;;;;4969002;28;20845;-47
2023/04/16 10:28:34;;;;;;;26.98;19.00;;;12.40;99.90;;;;;;4969551;28;20181;-45
2023/04/16 10:31:02;;;;;;;28.63;18.58;;;12.40;99.90;;;;;;4975900;28;20181;-45
2023/04/16 10:33:32;;;;;;;25.83;18.33;;;12.40;99.90;;;;;;4988631;28;20207;-46
2023/04/16 10:36:12;;;;;;;23.63;16.63;;;12.40;99.90;;;;;;4988560;28;20652;-47
2023/04/16 10:38:51;;;;;;;25.10;16.95;;;12.50;99.90;;;;;;4987546;28;20206;-46
2023/04/16 10:41:19;;;;;;;25.45;17.38;;;12.50;99.90;;;;;;4955034;28;20173;-47
2023/04/16 10:43:47;;;;;;;27.30;17.15;;;12.60;99.90;;;;;;4969189;28;20169;-46
2023/04/16 10:46:30;;;;;;;24.65;18.05;;;12.60;99.90;;;;;;4967428;28;20680;-46
2023/04/16 10:48:59;;;;;;;23.77;17.02;;;12.70;99.90;;;;;;4969115;28;20180;-46
2023/04/16 10:51:31;;;;;;;24.80;16.98;;;12.70;99.90;;;;;;4971766;28;20205;-49
2023/04/16 10:54:01;;;;;;;26.27;18.42;;;12.70;99.90;;;;;;4969197;28;20685;-44
2023/04/16 10:56:30;;;;;;;27.38;18.27;;;12.80;99.90;;;;;;4967579;28;20189;-48
2023/04/16 10:58:56;;;;;;;24.35;18.05;;;;;;;;;;4969079;28;20161;-48
2023/04/16 11:01:33;;;;;;;23.85;17.08;;;13.10;99.90;;;;;;4969307;28;20307;-48
2023/04/16 11:04:00;;;;;;;31.25;18.55;;;12.90;99.90;;;;;;4968958;28;20174;-48
2023/04/16 11:06:27;;;;;;;25.23;18.65;;;13.00;99.90;;;;;;4968551;28;20249;-46
2023/04/16 11:08:53;;;;;;;26.85;18.98;;;13.00;99.90;;;;;;4968475;28;20216;-46
2023/04/16 11:11:19;;;;;;;24.92;18.88;;;;;;;;;;4978212;28;20165;-46
2023/04/16 11:13:45;;;;;;;28.75;18.45;;;12.80;99.90;;;;;;4988073;28;20208;-46
2023/04/16 11:16:13;;;;;;;28.83;19.77;;;13.00;99.90;;;;;;4988266;28;20234;-46
2023/04/16 11:18:41;;;;;;;37.10;25.00;;;13.00;99.90;;;;;;4988114;28;20239;-46
2023/04/16 11:21:09;;;;;;;28.30;19.42;;;13.40;99.90;;;;;;4988158;28;20180;-44
2023/04/16 11:23:51;;;;;;;29.23;20.58;;;13.60;99.90;;;;;;4987714;28;20169;-48
2023/04/16 11:26:27;;;;;;;30.50;21.00;;;13.90;99.90;;;;;;4987572;28;20204;-46
2023/04/16 11:28:53;;;;;;;28.17;17.90;;;13.70;99.90;;;;;;4988529;28;20203;-44
2023/04/16 11:31:19;;;;;;;23.63;17.27;;;13.60;99.90;;;;;;4988014;28;20200;-46
2023/04/16 11:33:44;;;;;;;29.90;20.92;;;13.40;99.90;;;;;;4988287;28;20634;-47
2023/04/16 11:36:10;;;;;;;25.77;19.25;;;13.60;99.90;;;;;;4988110;28;20180;-48
2023/04/16 11:38:37;;;;;;;24.15;18.60;;;13.50;99.90;;;;;;4988148;28;20180;-46
2023/04/16 11:41:02;;;;;;;26.33;18.80;;;13.30;99.90;;;;;;4980286;28;20177;-46
2023/04/16 11:43:28;;;;;;;26.55;17.42;;;;;;;;;;4968857;28;20165;-47
2023/04/16 11:46:02;;;;;;;24.48;17.15;;;13.30;99.90;;;;;;4969080;28;20216;-46
2023/04/16 11:48:50;;;;;;;30.25;20.88;;;13.50;99.90;;;;;;4967607;28;20204;-46
2023/04/16 11:51:16;;;;;;;21.27;17.10;;;13.60;99.90;;;;;;4968749;28;20178;-50
2023/04/16 11:53:50;;;;;;;20.85;16.15;;;13.70;99.90;;;;;;4968991;28;20176;-47
2023/04/16 11:56:27;;;;;;;22.65;17.80;;;13.80;99.90;;;;;;4968531;28;20177;-44
2023/04/16 11:59:13;;;;;;;23.10;17.52;;;13.90;99.90;;;;;;4968913;28;20165;-46
2023/04/16 12:01:39;;;;;;;24.13;16.75;;;;;;;;;;4968568;28;20184;-47
2023/04/16 12:04:06;;;;;;;20.73;16.52;;;14.00;99.90;;;;;;4968762;28;20200;-47
2023/04/16 12:06:32;;;;;;;18.88;15.13;;;;;;;;;;4968679;28;20213;-46
2023/04/16 12:08:58;;;;;;;18.35;14.73;;;;;;;;;;4968247;28;20228;-46
2023/04/16 12:11:42;;;;;;;22.13;16.38;;;14.10;99.90;;;;;;4968967;28;20256;-45
2023/04/16 12:14:12;;;;;;;22.10;16.58;;;14.10;99.90;;;;;;4968044;28;20490;-46
2023/04/16 12:16:37;;;;;;;20.17;15.18;;;14.30;99.90;;;;;;4968171;28;20227;-45
2023/04/16 12:19:04;;;;;;;19.67;15.27;;;14.20;99.90;;;;;;4967859;28;20253;-45
2023/04/16 12:21:47;;;;;;;19.15;16.05;;;14.10;99.90;;;;;;4967998;28;20599;-46
2023/04/16 12:24:15;;;;;;;22.80;16.42;;;14.00;99.90;;;;;;4967788;28;20173;-46
2023/04/16 12:26:43;;;;;;;23.17;16.58;;;13.90;99.90;;;;;;4968169;28;20220;-46
2023/04/16 12:29:21;;;;;;;19.65;15.35;;;13.90;99.90;;;;;;4967946;28;20629;-45
2023/04/16 12:31:48;;;;;;;18.35;14.25;;;;;;;;;;4967988;28;20185;-44
2023/04/16 12:34:15;;;;;;;17.90;14.07;;;14.10;99.90;;;;;;4967764;28;20244;-44
2023/04/16 12:36:42;;;;;;;17.75;14.85;;;;;;;;;;4970048;28;20218;-48
2023/04/16 12:39:09;;;;;;;16.85;15.07;;;14.30;99.90;;;;;;4971637;28;20200;-46
2023/04/16 12:41:36;;;;;;;17.75;13.07;;;14.30;99.90;;;;;;4984379;28;20263;-48
2023/04/16 12:44:10;;;;;;;18.30;14.98;;;14.40;99.90;;;;;;4972183;28;20184;-46
2023/04/16 12:46:43;;;;;;;20.35;15.80;;;14.50;99.90;;;;;;4971362;28;20209;-45
2023/04/16 12:49:09;;;;;;;19.58;15.32;;;14.80;99.90;;;;;;4971093;28;20531;-46
2023/04/16 12:51:36;;;;;;;18.27;15.20;;;15.30;99.90;;;;;;4970966;28;20173;-46